Maersk Dayton — DDSC2 — position and weather

sailwx.info

Track history (hours):
 
Tides and Currents Weather Stations Pressure Air Temp Water Temp Dewpoint Dewpoint Depression Visibility Wind Speed Wind Dir Waves Ship Positions

Maersk Dayton

Last reported at 2016-Nov-25 12:15 UTC. Time now 2016-Dec-08 14:24 UTC.
Position N 09°34' W 079°47'.
Warning: this ship's position is 13 days out of date.

Length 281 m; beam 32.2 m; draft 12.5 m.

Type: Ship. MMSI: 218024000.

Date/timePositionNaut miles runAvg speedWind from/ knotsBaromVisibWave heightAir tempDewpointWater temp
2016-Nov-25 12:15N 09°34' W 079°47'1217.5
2016-Nov-25 11:33N 09°24' W 079°54'2 1.6
2016-Nov-25 10:29N 09°22' W 079°53'0 0.0
2016-Nov-25 09:32N 09°22' W 079°53'0 0.0
2016-Nov-25 08:32N 09°22' W 079°53'0 0.0
2016-Nov-25 07:32N 09°22' W 079°53'0 0.0
2016-Nov-25 06:32N 09°22' W 079°53'0 0.0
2016-Nov-25 05:32N 09°22' W 079°53'0 0.0
2016-Nov-25 04:32N 09°22' W 079°53'0 0.0
2016-Nov-25 03:32N 09°22' W 079°53'0 0.0
2016-Nov-25 02:32N 09°22' W 079°53'0 0.0
2016-Nov-25 01:32N 09°22' W 079°53'0 0.0
2016-Nov-25 00:32N 09°22' W 079°53'2 2.5
2016-Nov-24 23:33N 09°24' W 079°54'4 4.2
2016-Nov-24 22:33N 09°28' W 079°51'0 0.2
2016-Nov-24 21:33N 09°28' W 079°52'1 0.9
2016-Nov-24 20:33N 09°28' W 079°52'2 1.7
2016-Nov-24 19:33N 09°28' W 079°54'9 9.5
2016-Nov-24 18:33N 09°18' W 079°55'2 2.1
2016-Nov-24 17:33N 09°16' W 079°55'1 0.7
2016-Nov-24 16:33N 09°16' W 079°55'5 3.8
2016-Nov-24 15:14N 09°11' W 079°53'  
2016-Nov-21 18:00N 02°18' W 080°36'   240 / 121013.010.8 26.0 26.0
2016-Nov-16 18:00S 17°06' W 074°48'40616.9 170 / 101015.010.8 24.0 23.0
2016-Nov-15 18:00S 22°54' W 071°06'   180 / 101016.010.8 20.0 20.0
Track history (hours):
 
Tides and Currents Weather Stations Pressure Air Temp Water Temp Dewpoint Dewpoint Depression Visibility Wind Speed Wind Dir Waves Ship Positions

Maersk Dayton

Last reported at 2016-Nov-25 12:15 UTC. Time now 2016-Dec-08 14:24 UTC.
Position N 09°34' W 079°47'.
Warning: this ship's position is 13 days out of date.

Length 281 m; beam 32.2 m; draft 12.5 m.

Type: Ship. MMSI: 218024000.

Date/timePositionNaut miles runAvg speedWind from/ knotsBaromVisibWave heightAir tempDewpointWater temp
2016-Nov-25 12:15N 09°34' W 079°47'1217.5
2016-Nov-25 11:33N 09°24' W 079°54'2 1.6
2016-Nov-25 10:29N 09°22' W 079°53'0 0.0
2016-Nov-25 09:32N 09°22' W 079°53'0 0.0
2016-Nov-25 08:32N 09°22' W 079°53'0 0.0
2016-Nov-25 07:32N 09°22' W 079°53'0 0.0
2016-Nov-25 06:32N 09°22' W 079°53'0 0.0
2016-Nov-25 05:32N 09°22' W 079°53'0 0.0
2016-Nov-25 04:32N 09°22' W 079°53'0 0.0
2016-Nov-25 03:32N 09°22' W 079°53'0 0.0
2016-Nov-25 02:32N 09°22' W 079°53'0 0.0
2016-Nov-25 01:32N 09°22' W 079°53'0 0.0
2016-Nov-25 00:32N 09°22' W 079°53'2 2.5
2016-Nov-24 23:33N 09°24' W 079°54'4 4.2
2016-Nov-24 22:33N 09°28' W 079°51'0 0.2
2016-Nov-24 21:33N 09°28' W 079°52'1 0.9
2016-Nov-24 20:33N 09°28' W 079°52'2 1.7
2016-Nov-24 19:33N 09°28' W 079°54'9 9.5
2016-Nov-24 18:33N 09°18' W 079°55'2 2.1
2016-Nov-24 17:33N 09°16' W 079°55'1 0.7
2016-Nov-24 16:33N 09°16' W 079°55'5 3.8
2016-Nov-24 15:14N 09°11' W 079°53'  
2016-Nov-21 18:00N 02°18' W 080°36'   240 / 121013.010.8 26.0 26.0
2016-Nov-16 18:00S 17°06' W 074°48'40616.9 170 / 101015.010.8 24.0 23.0
2016-Nov-15 18:00S 22°54' W 071°06'   180 / 101016.010.8 20.0 20.0

Dump ship's entire track history